F/V Colombine — FVGA — position and weather

sailwx.info

Track history (hours):
 
Tides and Currents Weather Stations Pressure Air Temp Water Temp Dewpoint Dewpoint Depression Visibility Wind Speed Wind Dir Waves Ship Positions

F/V Colombine

Last reported at 2018-May-22 00:06 UTC. Time now 2018-Jun-25 14:14 UTC.
Position N 47°21' W 002°31'.
Warning: this ship's position is 34 days out of date.

Length 22 m.

Type: Fishing. MMSI: 227866000.

Date/timePositionNaut miles runAvg speedWind from/ knotsBaromVisibWave heightAir tempDewpointWater temp
2018-May-22 00:06N 47°21' W 002°31'0 1.9
2018-May-22 00:01N 47°21' W 002°31'5 9.0
2018-May-21 23:28N 47°17' W 002°36'4 9.1
2018-May-21 23:00N 47°14' W 002°39'5 9.2
2018-May-21 22:30N 47°10' W 002°43'5 9.3
2018-May-21 22:00N 47°06' W 002°48'28 1.5
2018-May-21 02:53N 46°44' W 003°13'2 5.0
2018-May-21 02:30N 46°44' W 003°16'4 7.2
2018-May-21 01:58N 46°45' W 003°22'2 5.0
2018-May-21 01:31N 46°45' W 003°25'1 1.7
2018-May-21 01:01N 46°44' W 003°24'3 3.7
2018-May-21 00:05N 46°43' W 003°19'0 3.6
2018-May-21 00:01N 46°43' W 003°19'40 2.1
2018-May-20 05:05N 47°12' W 002°39'1 9.3
2018-May-20 05:00N 47°13' W 002°39'9 9.2
2018-May-20 04:00N 47°21' W 002°31'0 0.1
2018-May-20 03:27N 47°21' W 002°31'0 0.0
2018-May-20 02:47N 47°21' W 002°31'0 0.0
2018-May-20 02:26N 47°21' W 002°31'0 0.6
2018-May-20 01:58N 47°21' W 002°31'2 3.3
2018-May-20 01:30N 47°20' W 002°33'5 9.6
2018-May-20 00:59N 47°16' W 002°37'4 8.9
2018-May-20 00:30N 47°12' W 002°41'5 8.7
2018-May-19 23:58N 47°09' W 002°46'27 5.9
2018-May-19 19:25N 46°49' W 003°12'2 3.1
2018-May-19 18:53N 46°49' W 003°15'2 4.0
2018-May-19 18:24N 46°49' W 003°17'2 2.9
2018-May-19 17:44N 46°49' W 003°20'8 0.6
2018-May-19 04:41N 46°45' W 003°10'5 0.5
2018-May-18 18:54N 46°49' W 003°14'2 3.7
2018-May-18 18:27N 46°49' W 003°16'1 2.9
2018-May-18 18:01N 46°48' W 003°17'3 3.1
2018-May-18 16:58N 46°47' W 003°13'2 0.3
2018-May-18 10:40N 46°45' W 003°12'2 2.8
2018-May-18 09:59N 46°45' W 003°14'47 3.6
2018-May-17 20:52N 47°21' W 002°31'0 0.0
2018-May-17 04:14N 47°21' W 002°31'0 0.1
2018-May-17 04:00N 47°21' W 002°31'0 0.0
2018-May-17 03:29N 47°21' W 002°31'0 0.0
2018-May-17 03:00N 47°21' W 002°31'0 0.0
2018-May-17 02:30N 47°21' W 002°31'0 0.0
2018-May-17 01:11N 47°21' W 002°31'0 0.0
2018-May-17 00:59N 47°21' W 002°31'3 5.2
2018-May-17 00:29N 47°20' W 002°34'5 9.1
2018-May-16 23:58N 47°18' W 002°41'4 9.3
2018-May-16 23:30N 47°16' W 002°46'10 8.5
2018-May-16 22:18N 47°09' W 002°58'26 1.3
2018-May-16 01:50N 46°47' W 003°18'1 3.7
2018-May-16 01:30N 46°46' W 003°17'3 3.7
2018-May-16 00:37N 46°43' W 003°16'2 3.9
2018-May-16 00:11N 46°41' W 003°16'1 3.9
2018-May-16 00:00N 46°41' W 003°16'3 2.8
2018-May-15 23:02N 46°38' W 003°18'0 3.9
2018-May-15 22:59N 46°38' W 003°17'17 2.4
2018-May-15 16:08N 46°28' W 002°58'7 0.5
2018-May-15 01:19N 46°33' W 003°07'54 2.9
2018-May-14 06:26N 47°21' W 002°31'0 0.0
2018-May-14 06:00N 47°21' W 002°31'0 0.0
2018-May-14 02:32N 47°21' W 002°31'0 0.0
2018-May-14 02:29N 47°21' W 002°31'0 0.0
2018-May-13 21:55N 47°21' W 002°31'0 0.0
2018-May-13 21:23N 47°21' W 002°31'0 0.0
2018-May-13 20:57N 47°21' W 002°31'0 0.0
2018-May-13 03:37N 47°21' W 002°31'0 0.3
2018-May-13 03:29N 47°21' W 002°31'0 0.0
2018-May-13 00:42N 47°21' W 002°31'2 8.5
2018-May-13 00:29N 47°20' W 002°33'5 9.4
2018-May-12 23:57N 47°15' W 002°37'  
Track history (hours):
 
Tides and Currents Weather Stations Pressure Air Temp Water Temp Dewpoint Dewpoint Depression Visibility Wind Speed Wind Dir Waves Ship Positions

F/V Colombine

Last reported at 2018-May-22 00:06 UTC. Time now 2018-Jun-25 14:14 UTC.
Position N 47°21' W 002°31'.
Warning: this ship's position is 34 days out of date.

Length 22 m.

Type: Fishing. MMSI: 227866000.

Date/timePositionNaut miles runAvg speedWind from/ knotsBaromVisibWave heightAir tempDewpointWater temp
2018-May-22 00:06N 47°21' W 002°31'0 1.9
2018-May-22 00:01N 47°21' W 002°31'5 9.0
2018-May-21 23:28N 47°17' W 002°36'4 9.1
2018-May-21 23:00N 47°14' W 002°39'5 9.2
2018-May-21 22:30N 47°10' W 002°43'5 9.3
2018-May-21 22:00N 47°06' W 002°48'28 1.5
2018-May-21 02:53N 46°44' W 003°13'2 5.0
2018-May-21 02:30N 46°44' W 003°16'4 7.2
2018-May-21 01:58N 46°45' W 003°22'2 5.0
2018-May-21 01:31N 46°45' W 003°25'1 1.7
2018-May-21 01:01N 46°44' W 003°24'3 3.7
2018-May-21 00:05N 46°43' W 003°19'0 3.6
2018-May-21 00:01N 46°43' W 003°19'40 2.1
2018-May-20 05:05N 47°12' W 002°39'1 9.3
2018-May-20 05:00N 47°13' W 002°39'9 9.2
2018-May-20 04:00N 47°21' W 002°31'0 0.1
2018-May-20 03:27N 47°21' W 002°31'0 0.0
2018-May-20 02:47N 47°21' W 002°31'0 0.0
2018-May-20 02:26N 47°21' W 002°31'0 0.6
2018-May-20 01:58N 47°21' W 002°31'2 3.3
2018-May-20 01:30N 47°20' W 002°33'5 9.6
2018-May-20 00:59N 47°16' W 002°37'4 8.9
2018-May-20 00:30N 47°12' W 002°41'5 8.7
2018-May-19 23:58N 47°09' W 002°46'27 5.9
2018-May-19 19:25N 46°49' W 003°12'2 3.1
2018-May-19 18:53N 46°49' W 003°15'2 4.0
2018-May-19 18:24N 46°49' W 003°17'2 2.9
2018-May-19 17:44N 46°49' W 003°20'8 0.6
2018-May-19 04:41N 46°45' W 003°10'5 0.5
2018-May-18 18:54N 46°49' W 003°14'2 3.7
2018-May-18 18:27N 46°49' W 003°16'1 2.9
2018-May-18 18:01N 46°48' W 003°17'3 3.1
2018-May-18 16:58N 46°47' W 003°13'2 0.3
2018-May-18 10:40N 46°45' W 003°12'2 2.8
2018-May-18 09:59N 46°45' W 003°14'47 3.6
2018-May-17 20:52N 47°21' W 002°31'0 0.0
2018-May-17 04:14N 47°21' W 002°31'0 0.1
2018-May-17 04:00N 47°21' W 002°31'0 0.0
2018-May-17 03:29N 47°21' W 002°31'0 0.0
2018-May-17 03:00N 47°21' W 002°31'0 0.0
2018-May-17 02:30N 47°21' W 002°31'0 0.0
2018-May-17 01:11N 47°21' W 002°31'0 0.0
2018-May-17 00:59N 47°21' W 002°31'3 5.2
2018-May-17 00:29N 47°20' W 002°34'5 9.1
2018-May-16 23:58N 47°18' W 002°41'4 9.3
2018-May-16 23:30N 47°16' W 002°46'10 8.5
2018-May-16 22:18N 47°09' W 002°58'26 1.3
2018-May-16 01:50N 46°47' W 003°18'1 3.7
2018-May-16 01:30N 46°46' W 003°17'3 3.7
2018-May-16 00:37N 46°43' W 003°16'2 3.9
2018-May-16 00:11N 46°41' W 003°16'1 3.9
2018-May-16 00:00N 46°41' W 003°16'3 2.8
2018-May-15 23:02N 46°38' W 003°18'0 3.9
2018-May-15 22:59N 46°38' W 003°17'17 2.4
2018-May-15 16:08N 46°28' W 002°58'7 0.5
2018-May-15 01:19N 46°33' W 003°07'54 2.9
2018-May-14 06:26N 47°21' W 002°31'0 0.0
2018-May-14 06:00N 47°21' W 002°31'0 0.0
2018-May-14 02:32N 47°21' W 002°31'0 0.0
2018-May-14 02:29N 47°21' W 002°31'0 0.0
2018-May-13 21:55N 47°21' W 002°31'0 0.0
2018-May-13 21:23N 47°21' W 002°31'0 0.0
2018-May-13 20:57N 47°21' W 002°31'0 0.0
2018-May-13 03:37N 47°21' W 002°31'0 0.3
2018-May-13 03:29N 47°21' W 002°31'0 0.0
2018-May-13 00:42N 47°21' W 002°31'2 8.5
2018-May-13 00:29N 47°20' W 002°33'5 9.4
2018-May-12 23:57N 47°15' W 002°37'  

Dump ship's entire track history